Current Weather

Burlington Muni

Burlington, Wisconsin (KBUU)

Report from: Monday, February 6, 2023 12:15 AM CST
Current time: Monday, February 6, 2023 12:34 AM CST

Nearby weather
Weather history
Weather forecast

Temperature-9.5°C (14.9°F)
Wind chill-13.6°C (7.5°F)
Dew point-10.2°C (13.6°F)
Winds 4 kts (2.1 m/s, 4.6 mph) Southwest (230°)
Visibility7 mi. (11.3 km)
Clouds Sky clear
Altimeter30.17 in.Hg (1022 mB)
Relative humidity95 %
Density altitude-3,302 ft. (-1,007 m)
Remarks Fully automated report
Automated weather observing station with precipitation discriminator
Present weather sensor not operating
Flight conditions Visual Meteorological Conditions
Raw dataKBUU 060615Z AUTO 23004KT 7SM CLR M09/M10 A3017 RMK AO2 T10951102 PWINO
An error has occurred. This application may no longer respond until reloaded. Reload 🗙